Time;durP1;ratioP1;P1;durP2;ratioP2;P2;SDS_P1;SDS_P2;PMS_P1;PMS_P2;Temp;Humidity;BMP_temperature;BMP_pressure;BME280_temperature;BME280_humidity;BME280_pressure;Samples;Min_cycle;Max_cycle;Signal;HPM_P1;HPM_P2
2021/03/24 00:01:58;;;;;;;78.20;38.33;;;;;;;;;;5113439;28;20710;-68
2021/03/24 00:04:26;;;;;;;73.80;38.83;;;;;;;;;;5113405;28;20230;-68
2021/03/24 00:06:53;;;;;;;72.60;37.70;;;;;;;;;;5113674;28;20299;-67
2021/03/24 00:09:21;;;;;;;68.00;37.17;;;;;;;;;;5114007;28;20212;-68
2021/03/24 00:11:47;;;;;;;82.63;39.88;;;;;;;;;;5113918;28;20205;-67
2021/03/24 00:14:14;;;;;;;74.85;38.75;;;;;;;;;;5113733;28;20708;-69
2021/03/24 00:16:41;;;;;;;83.63;40.33;;;;;;;;;;5113324;28;20280;-68
2021/03/24 00:19:08;;;;;;;86.30;41.10;;;;;;;;;;5113261;28;20289;-68
2021/03/24 00:21:35;;;;;;;68.53;39.38;;;;;;;;;;5113368;28;20225;-69
2021/03/24 00:24:02;;;;;;;72.00;39.30;;;;;;;;;;5113393;28;20780;-69
2021/03/24 00:26:29;;;;;;;83.15;42.22;;;;;;;;;;5113184;28;20280;-69
2021/03/24 00:28:56;;;;;;;80.20;37.92;;;;;;;;;;5113082;28;20710;-67
2021/03/24 00:31:23;;;;;;;84.45;38.70;;;;;;;;;;5113525;28;20289;-68
2021/03/24 00:33:50;;;;;;;79.95;39.63;;;;;;;;;;5113130;28;20289;-68
2021/03/24 00:36:17;;;;;;;74.65;38.05;;;;;;;;;;5113541;28;20675;-69
2021/03/24 00:38:45;;;;;;;79.35;40.15;;;;;;;;;;5115410;28;20713;-68
2021/03/24 00:41:12;;;;;;;75.82;40.97;;;;;;;;;;5117012;28;20236;-68
2021/03/24 00:43:39;;;;;;;84.88;41.03;;;;;;;;;;5117667;28;20283;-69
2021/03/24 00:46:06;;;;;;;82.43;41.03;;;;;;;;;;5117546;28;20285;-69
2021/03/24 00:48:34;;;;;;;85.53;41.85;;;;;;;;;;5116793;28;20765;-69
2021/03/24 00:51:01;;;;;;;74.68;39.13;;;;;;;;;;5117179;28;20206;-69
2021/03/24 00:53:27;;;;;;;85.40;38.55;;;;;;;;;;5117358;28;20358;-69
2021/03/24 00:55:55;;;;;;;71.13;40.30;;;;;;;;;;5117793;28;20199;-68
2021/03/24 00:58:22;;;;;;;74.07;38.53;;;;;;;;;;5117297;28;20703;-67
2021/03/24 01:00:50;;;;;;;73.22;38.05;;;;;;;;;;5116880;28;20276;-68
2021/03/24 01:03:17;;;;;;;75.03;39.33;;;;;;;;;;5116568;28;20204;-69
2021/03/24 01:05:44;;;;;;;76.40;39.42;;;;;;;;;;5117187;28;20195;-68
2021/03/24 01:08:12;;;;;;;81.35;41.22;;;;;;;;;;5116303;28;20193;-68
2021/03/24 01:10:40;;;;;;;72.18;40.40;;;;;;;;;;5116751;28;20288;-68
2021/03/24 01:13:07;;;;;;;79.63;41.97;;;;;;;;;;5116253;28;20283;-67
2021/03/24 01:15:35;;;;;;;83.80;39.35;;;;;;;;;;5116293;28;20703;-69
2021/03/24 01:18:02;;;;;;;80.00;41.00;;;;;;;;;;5116258;28;20284;-69
2021/03/24 01:20:30;;;;;;;86.70;41.63;;;;;;;;;;5116813;28;20229;-69
2021/03/24 01:22:57;;;;;;;93.47;44.10;;;;;;;;;;5116270;28;20739;-68
2021/03/24 01:25:24;;;;;;;85.68;40.10;;;;;;;;;;5116108;28;20288;-67
2021/03/24 01:27:51;;;;;;;78.97;41.67;;;;;;;;;;5116122;28;20315;-68
2021/03/24 01:30:20;;;;;;;76.65;37.97;;;;;;;;;;5115902;28;20221;-69
2021/03/24 01:32:47;;;;;;;81.43;41.47;;;;;;;;;;5116831;28;20289;-69
2021/03/24 01:35:15;;;;;;;84.68;41.00;;;;;;;;;;5115883;28;20224;-69
2021/03/24 01:37:43;;;;;;;74.88;40.72;;;;;;;;;;5115885;28;20706;-68
2021/03/24 01:40:10;;;;;;;85.20;42.22;;;;;;;;;;5116179;28;20193;-69
2021/03/24 01:42:37;;;;;;;76.55;39.75;;;;;;;;;;5115762;28;20238;-69
2021/03/24 01:45:07;;;;;;;77.20;41.53;;;;;;;;;;5116097;28;20596;-68
2021/03/24 01:47:35;;;;;;;85.93;41.13;;;;;;;;;;5116212;28;20643;-68
2021/03/24 01:50:02;;;;;;;86.65;43.58;;;;;;;;;;5115299;28;20646;-69
2021/03/24 01:52:29;;;;;;;76.88;43.83;;;;;;;;;;5115674;28;20330;-68
2021/03/24 01:54:56;;;;;;;77.50;41.50;;;;;;;;;;5115755;28;20330;-68
2021/03/24 01:57:24;;;;;;;87.80;40.63;;;;;;;;;;5115643;28;20199;-67
2021/03/24 01:59:52;;;;;;;85.93;44.22;;;;;;;;;;5116092;28;20377;-68
2021/03/24 02:02:20;;;;;;;84.80;43.08;;;;;;;;;;5115333;28;20280;-68
2021/03/24 02:04:49;;;;;;;84.10;43.08;;;;;;;;;;5115730;28;20199;-68
2021/03/24 02:07:17;;;;;;;85.57;44.05;;;;;;;;;;5115493;28;20283;-69
2021/03/24 02:09:49;;;;;;;82.82;43.42;;;;;;;;;;5115325;28;20299;-68
2021/03/24 02:12:19;;;;;;;92.57;44.95;;;;;;;;;;5116153;28;20192;-68
2021/03/24 02:14:48;;;;;;;83.80;43.20;;;;;;;;;;5115636;28;20288;-69
2021/03/24 02:17:15;;;;;;;88.00;43.75;;;;;;;;;;5116017;28;20280;-69
2021/03/24 02:19:45;;;;;;;103.00;47.47;;;;;;;;;;5115225;28;20298;-67
2021/03/24 02:22:14;;;;;;;93.60;43.42;;;;;;;;;;5115512;28;20272;-69
2021/03/24 02:24:44;;;;;;;89.10;43.95;;;;;;;;;;5115040;28;20280;-68
2021/03/24 02:27:13;;;;;;;98.50;43.30;;;;;;;;;;5115915;28;20202;-67
2021/03/24 02:29:43;;;;;;;91.32;44.38;;;;;;;;;;5115148;28;20288;-69
2021/03/24 02:32:12;;;;;;;82.35;41.13;;;;;;;;;;5116056;28;20294;-68
2021/03/24 02:34:40;;;;;;;86.32;43.08;;;;;;;;;;5115733;28;20280;-69
2021/03/24 02:37:07;;;;;;;82.53;44.20;;;;;;;;;;5115089;28;20279;-68
2021/03/24 02:39:34;;;;;;;91.03;44.63;;;;;;;;;;5115456;27;20283;-68
2021/03/24 02:42:03;;;;;;;90.75;45.75;;;;;;;;;;5114774;28;20284;-68
2021/03/24 02:44:31;;;;;;;85.95;42.90;;;;;;;;;;5114694;28;20288;-68
2021/03/24 02:46:58;;;;;;;97.43;44.92;;;;;;;;;;5115035;28;20276;-68
2021/03/24 02:49:26;;;;;;;78.82;41.15;;;;;;;;;;5114488;28;20228;-68
2021/03/24 02:51:54;;;;;;;97.57;43.60;;;;;;;;;;5115502;28;20385;-68
2021/03/24 02:54:22;;;;;;;72.65;41.58;;;;;;;;;;5114769;28;20200;-68
2021/03/24 02:56:49;;;;;;;96.93;43.95;;;;;;;;;;5114793;28;20224;-69
2021/03/24 02:59:16;;;;;;;86.78;43.15;;;;;;;;;;5114312;28;20311;-68
2021/03/24 03:01:47;;;;;;;92.07;40.95;;;;;;;;;;5114103;28;20229;-69
2021/03/24 03:04:18;;;;;;;84.32;44.65;;;;;;;;;;5115581;28;20222;-68
2021/03/24 03:06:46;;;;;;;98.38;45.35;;;;;;;;;;5115140;28;20315;-67
2021/03/24 03:09:21;;;;;;;84.72;41.17;;;;;;;;;;5114408;28;20307;-67
2021/03/24 03:11:52;;;;;;;95.22;46.22;;;;;;;;;;5114558;28;20242;-67
2021/03/24 03:14:22;;;;;;;97.38;44.45;;;;;;;;;;5114970;28;20654;-67
2021/03/24 03:16:52;;;;;;;95.85;44.97;;;;;;;;;;5114111;28;20283;-68
2021/03/24 03:19:23;;;;;;;98.80;46.10;;;;;;;;;;5114805;28;20181;-68
2021/03/24 03:21:51;;;;;;;91.93;45.40;;;;;;;;;;5114667;28;20262;-68
2021/03/24 03:24:20;;;;;;;105.78;46.92;;;;;;;;;;5113969;28;20288;-67
2021/03/24 03:26:47;;;;;;;94.35;47.15;;;;;;;;;;5114031;28;20284;-67
2021/03/24 03:29:15;;;;;;;91.95;46.50;;;;;;;;;;5114191;28;20266;-67
2021/03/24 03:31:43;;;;;;;102.57;45.80;;;;;;;;;;5113867;27;20242;-68
2021/03/24 03:34:13;;;;;;;94.70;46.95;;;;;;;;;;5114160;28;20237;-68
2021/03/24 03:36:41;;;;;;;94.78;46.92;;;;;;;;;;5114520;28;20225;-68
2021/03/24 03:39:10;;;;;;;88.70;44.05;;;;;;;;;;5114018;28;20685;-69
2021/03/24 03:41:37;;;;;;;88.63;45.38;;;;;;;;;;5114161;28;20730;-68
2021/03/24 03:44:05;;;;;;;89.45;43.80;;;;;;;;;;5115099;28;20290;-69
2021/03/24 03:46:34;;;;;;;98.38;48.17;;;;;;;;;;5114033;28;20660;-69
2021/03/24 03:49:01;;;;;;;100.43;47.88;;;;;;;;;;5113656;28;20758;-68
2021/03/24 03:51:36;;;;;;;100.85;48.42;;;;;;;;;;5113990;28;20230;-68
2021/03/24 03:54:08;;;;;;;90.03;45.90;;;;;;;;;;5114483;28;20213;-69
2021/03/24 03:56:38;;;;;;;90.63;47.00;;;;;;;;;;5114098;28;20630;-68
2021/03/24 03:59:08;;;;;;;108.78;52.22;;;;;;;;;;5114772;28;20268;-67
2021/03/24 04:01:36;;;;;;;85.10;46.55;;;;;;;;;;5113926;28;20288;-69
2021/03/24 04:04:07;;;;;;;97.25;49.65;;;;;;;;;;5113562;28;20196;-69
2021/03/24 04:06:38;;;;;;;100.47;49.88;;;;;;;;;;5114203;28;20272;-68
2021/03/24 04:09:07;;;;;;;97.72;46.20;;;;;;;;;;5114092;28;20251;-69
2021/03/24 04:11:36;;;;;;;106.32;49.53;;;;;;;;;;5113556;28;20643;-70
2021/03/24 04:14:04;;;;;;;84.78;44.83;;;;;;;;;;5117371;28;20285;-70
2021/03/24 04:16:30;;;;;;;103.85;49.17;;;;;;;;;;5117866;27;20783;-71
2021/03/24 04:19:00;;;;;;;90.70;46.58;;;;;;;;;;5117547;28;20287;-68
2021/03/24 04:21:28;;;;;;;95.78;49.35;;;;;;;;;;5117806;28;20288;-69
2021/03/24 04:23:59;;;;;;;107.03;49.08;;;;;;;;;;5118121;28;20284;-69
2021/03/24 04:26:29;;;;;;;105.88;46.22;;;;;;;;;;5118164;28;20193;-68
2021/03/24 04:28:56;;;;;;;111.00;49.75;;;;;;;;;;5117220;28;20226;-69
2021/03/24 04:31:26;;;;;;;97.57;47.75;;;;;;;;;;5117589;27;20283;-69
2021/03/24 04:33:52;;;;;;;91.70;46.60;;;;;;;;;;5117570;28;20225;-69
2021/03/24 04:36:21;;;;;;;101.65;47.90;;;;;;;;;;5117645;28;20197;-69
2021/03/24 04:38:50;;;;;;;77.68;43.10;;;;;;;;;;5117182;28;20197;-69
2021/03/24 04:41:22;;;;;;;90.78;46.67;;;;;;;;;;5117397;28;20232;-68
2021/03/24 04:43:52;;;;;;;86.63;47.78;;;;;;;;;;5117571;28;20268;-68
2021/03/24 04:46:20;;;;;;;94.47;46.70;;;;;;;;;;5117009;28;20284;-69
2021/03/24 04:48:48;;;;;;;94.43;47.40;;;;;;;;;;5117307;28;20299;-68
2021/03/24 04:51:18;;;;;;;97.28;48.10;;;;;;;;;;5116978;28;20245;-68
2021/03/24 04:53:46;;;;;;;85.00;44.85;;;;;;;;;;5117214;28;20194;-68
2021/03/24 04:56:13;;;;;;;90.18;47.75;;;;;;;;;;5117154;27;20283;-68
2021/03/24 04:58:42;;;;;;;78.95;42.90;;;;;;;;;;5117705;28;20316;-69
2021/03/24 05:01:11;;;;;;;84.35;47.22;;;;;;;;;;5117283;28;20192;-68
2021/03/24 05:03:39;;;;;;;83.82;45.63;;;;;;;;;;5117016;28;20196;-69
2021/03/24 05:06:07;;;;;;;85.55;46.08;;;;;;;;;;5116663;28;20296;-69
2021/03/24 05:08:37;;;;;;;90.45;48.55;;;;;;;;;;5115652;28;20699;-67
2021/03/24 05:11:06;;;;;;;100.75;47.30;;;;;;;;;;5116927;28;20597;-68
2021/03/24 05:13:35;;;;;;;93.85;47.70;;;;;;;;;;5115625;28;20196;-67
2021/03/24 05:16:04;;;;;;;92.00;45.78;;;;;;;;;;5115292;28;20192;-69
2021/03/24 05:18:31;;;;;;;88.45;45.33;;;;;;;;;;5116187;27;20279;-68
2021/03/24 05:21:02;;;;;;;90.57;44.88;;;;;;;;;;5115523;28;20275;-67
2021/03/24 05:23:29;;;;;;;96.18;47.78;;;;;;;;;;5115351;28;20688;-68
2021/03/24 05:25:59;;;;;;;84.50;44.40;;;;;;;;;;5115838;28;20345;-67
2021/03/24 05:28:28;;;;;;;93.57;44.92;;;;;;;;;;5114781;28;20287;-66
2021/03/24 05:30:56;;;;;;;89.45;46.53;;;;;;;;;;5115742;28;20654;-68
2021/03/24 05:33:26;;;;;;;92.43;42.17;;;;;;;;;;5116049;28;20322;-69
2021/03/24 05:35:59;;;;;;;73.13;41.38;;;;;;;;;;5115975;28;20272;-69
2021/03/24 05:38:30;;;;;;;87.35;45.22;;;;;;;;;;5115087;28;20268;-67
2021/03/24 05:41:03;;;;;;;89.30;44.80;;;;;;;;;;5115245;28;20280;-69
2021/03/24 05:43:49;;;;;;;83.38;44.08;;;;;;;;;;5116129;28;20263;-66
2021/03/24 05:46:20;;;;;;;95.85;43.90;;;;;;;;;;5115742;28;20181;-65
2021/03/24 05:49:02;;;;;;;81.40;42.08;;;;;;;;;;5116073;28;20603;-65
2021/03/24 05:51:34;;;;;;;80.82;43.08;;;;;;;;;;5115354;28;20614;-65
2021/03/24 05:54:07;;;;;;;80.55;41.72;;;;;;;;;;5114900;28;20276;-65
2021/03/24 05:56:41;;;;;;;86.82;42.88;;;;;;;;;;5115150;28;20284;-65
2021/03/24 05:59:16;;;;;;;82.15;42.47;;;;;;;;;;5115083;28;20261;-65
2021/03/24 06:01:46;;;;;;;85.95;45.53;;;;;;;;;;5114976;28;20623;-65
2021/03/24 06:04:17;;;;;;;75.10;42.28;;;;;;;;;;5114331;28;20226;-64
2021/03/24 06:07:02;;;;;;;72.03;39.78;;;;;;;;;;5115971;28;20365;-65
2021/03/24 06:09:39;;;;;;;76.57;39.63;;;;;;;;;;5113895;28;20197;-67
2021/03/24 06:12:29;;;;;;;79.45;42.05;;;;;;;;;;5115466;28;20195;-66
2021/03/24 06:15:13;;;;;;;74.65;41.72;;;;;;;;;;5114948;28;20181;-65
2021/03/24 06:17:55;;;;;;;77.13;42.28;;;;;;;;;;5114847;28;20216;-65
2021/03/24 06:20:31;;;;;;;82.95;40.95;;;;;;;;;;5115195;28;20273;-66
2021/03/24 06:23:13;;;;;;;87.40;41.30;;;;;;;;;;5115473;28;20264;-64
2021/03/24 06:25:42;;;;;;;79.40;39.95;;;;;;;;;;5113223;28;20197;-65
2021/03/24 06:28:15;;;;;;;75.05;39.33;;;;;;;;;;5115376;28;20235;-66
2021/03/24 06:30:51;;;;;;;68.88;38.38;;;;;;;;;;5114994;28;20301;-66
2021/03/24 06:33:35;;;;;;;75.18;40.95;;;;;;;;;;5114862;28;20275;-65
2021/03/24 06:36:19;;;;;;;78.35;37.78;;;;;;;;;;5114421;28;20221;-65
2021/03/24 06:38:51;;;;;;;77.28;38.58;;;;;;;;;;5115203;28;20315;-66
2021/03/24 06:41:28;;;;;;;81.60;38.58;;;;;;;;;;5115097;28;20276;-65
2021/03/24 06:44:11;;;;;;;70.85;36.53;;;;;;;;;;5114653;28;20610;-67
2021/03/24 06:46:40;;;;;;;64.65;37.13;;;;;;;;;;5115039;28;20315;-69
2021/03/24 06:49:20;;;;;;;66.00;36.65;;;;;;;;;;5114696;28;20301;-66
2021/03/24 06:52:05;;;;;;;67.70;38.95;;;;;;;;;;5115192;28;20268;-67
2021/03/24 06:54:59;;;;;;;60.40;35.03;;;;;;;;;;5114933;28;20280;-66
2021/03/24 06:57:40;;;;;;;68.93;34.92;;;;;;;;;;5115076;28;20284;-66
2021/03/24 07:00:15;;;;;;;62.20;35.40;;;;;;;;;;5115314;28;20733;-65
2021/03/24 07:02:58;;;;;;;65.82;35.70;;;;;;;;;;5114678;28;20272;-66
2021/03/24 07:05:42;;;;;;;59.47;34.50;;;;;;;;;;5114311;28;20269;-66
2021/03/24 07:08:17;;;;;;;56.80;34.72;;;;;;;;;;5104521;28;20228;-65
2021/03/24 07:10:53;;;;;;;66.40;36.53;;;;;;;;;;5114103;28;20212;-66
2021/03/24 07:13:38;;;;;;;56.78;33.88;;;;;;;;;;5114062;28;20230;-66
2021/03/24 07:16:08;;;;;;;59.20;34.05;;;;;;;;;;5114049;28;20288;-66
2021/03/24 07:18:43;;;;;;;64.15;33.25;;;;;;;;;;5114339;28;20248;-66
2021/03/24 07:21:28;;;;;;;57.42;31.80;;;;;;;;;;5114745;28;20234;-66
2021/03/24 07:24:14;;;;;;;60.35;31.08;;;;;;;;;;5104191;28;20228;-66
2021/03/24 07:26:52;;;;;;;57.13;32.80;;;;;;;;;;5114396;28;20214;-65
2021/03/24 07:29:29;;;;;;;58.33;33.00;;;;;;;;;;5114161;28;20244;-67
2021/03/24 07:32:02;;;;;;;56.42;32.65;;;;;;;;;;5115005;28;20188;-67
2021/03/24 07:34:37;;;;;;;53.80;30.10;;;;;;;;;;5114554;28;20200;-67
2021/03/24 07:37:27;;;;;;;50.30;29.23;;;;;;;;;;5114292;28;20181;-66
2021/03/24 07:40:08;;;;;;;52.53;31.60;;;;;;;;;;5114248;28;20224;-66
2021/03/24 07:42:42;;;;;;;48.58;30.08;;;;;;;;;;5101279;28;20292;-66
2021/03/24 07:45:25;;;;;;;52.63;30.17;;;;;;;;;;5113757;28;20220;-66
2021/03/24 07:48:02;;;;;;;55.75;30.15;;;;;;;;;;5114480;28;20216;-66
2021/03/24 07:50:32;;;;;;;52.75;30.02;;;;;;;;;;5114214;28;20303;-66
2021/03/24 07:53:03;;;;;;;52.10;30.65;;;;;;;;;;5114133;28;20241;-66
2021/03/24 07:55:35;;;;;;;50.17;29.48;;;;;;;;;;5113659;28;20728;-66
2021/03/24 07:58:20;;;;;;;48.53;27.85;;;;;;;;;;5113647;28;20693;-66
2021/03/24 08:00:51;;;;;;;51.65;29.63;;;;;;;;;;5113783;28;20201;-66
2021/03/24 08:03:20;;;;;;;47.97;30.00;;;;;;;;;;5114132;28;20181;-66
2021/03/24 08:05:52;;;;;;;41.63;26.65;;;;;;;;;;5114086;28;20226;-66
2021/03/24 08:08:23;;;;;;;52.60;30.45;;;;;;;;;;5113439;28;20192;-66
2021/03/24 08:10:53;;;;;;;51.80;29.88;;;;;;;;;;5113762;28;20238;-66
2021/03/24 08:13:37;;;;;;;52.58;28.27;;;;;;;;;;5113451;28;20238;-66
2021/03/24 08:16:15;;;;;;;48.88;28.75;;;;;;;;;;5103867;28;20603;-66
2021/03/24 08:18:45;;;;;;;48.85;28.60;;;;;;;;;;5113907;28;20224;-66
2021/03/24 08:21:15;;;;;;;54.90;29.52;;;;;;;;;;5113775;28;20194;-66
2021/03/24 08:24:00;;;;;;;41.63;27.17;;;;;;;;;;5113727;28;20653;-65
2021/03/24 08:26:29;;;;;;;56.28;30.25;;;;;;;;;;5113247;28;20207;-65
2021/03/24 08:29:01;;;;;;;51.65;29.02;;;;;;;;;;5113170;28;20293;-65
2021/03/24 08:31:47;;;;;;;54.13;33.08;;;;;;;;;;5113934;28;20615;-66
2021/03/24 08:34:20;;;;;;;54.03;31.15;;;;;;;;;;5113605;28;20221;-67
2021/03/24 08:37:17;;;;;;;59.55;30.77;;;;;;;;;;5113862;28;20197;-66
2021/03/24 08:39:51;;;;;;;56.50;30.85;;;;;;;;;;5051244;28;20233;-66
2021/03/24 08:42:31;;;;;;;53.75;31.60;;;;;;;;;;5102425;28;20648;-66
2021/03/24 08:45:01;;;;;;;56.55;31.48;;;;;;;;;;5113774;28;20184;-66
2021/03/24 08:47:32;;;;;;;51.38;29.60;;;;;;;;;;5113053;28;20214;-67
2021/03/24 08:50:01;;;;;;;64.32;32.15;;;;;;;;;;5113289;28;20238;-66
2021/03/24 08:52:31;;;;;;;59.00;30.60;;;;;;;;;;5113412;28;20279;-66
2021/03/24 08:55:17;;;;;;;50.15;29.42;;;;;;;;;;5113338;28;20195;-66
2021/03/24 08:57:51;;;;;;;50.67;30.95;;;;;;;;;;5113618;28;20200;-66
2021/03/24 09:00:34;;;;;;;56.75;33.53;;;;;;;;;;5116548;27;20754;-66
2021/03/24 09:03:17;;;;;;;57.30;33.65;;;;;;;;;;5116705;28;20223;-67
2021/03/24 09:05:50;;;;;;;54.47;31.20;;;;;;;;;;5116591;28;20271;-66
2021/03/24 09:08:25;;;;;;;57.67;31.27;;;;;;;;;;5116816;28;20267;-65
2021/03/24 09:10:59;;;;;;;66.25;33.25;;;;;;;;;;5116352;28;20783;-66
2021/03/24 09:13:29;;;;;;;57.65;33.95;;;;;;;;;;5116877;28;20270;-66
2021/03/24 09:16:11;;;;;;;52.60;32.53;;;;;;;;;;5116640;28;20283;-65
2021/03/24 09:18:44;;;;;;;59.25;33.30;;;;;;;;;;5104248;28;20194;-65
2021/03/24 09:21:13;;;;;;;60.92;34.80;;;;;;;;;;5116361;27;20215;-66
2021/03/24 09:23:49;;;;;;;57.53;34.70;;;;;;;;;;5117039;28;20233;-66
2021/03/24 09:26:30;;;;;;;62.22;32.97;;;;;;;;;;5116529;27;20281;-68
2021/03/24 09:29:06;;;;;;;49.58;31.27;;;;;;;;;;5116216;28;20659;-65
2021/03/24 09:31:46;;;;;;;56.03;31.92;;;;;;;;;;5117250;27;20184;-66
2021/03/24 09:34:19;;;;;;;58.67;32.03;;;;;;;;;;5116951;28;20183;-66
2021/03/24 09:36:56;;;;;;;60.25;30.08;;;;;;;;;;5116026;28;20208;-66
2021/03/24 09:39:26;;;;;;;59.08;32.25;;;;;;;;;;5116738;28;20201;-66
2021/03/24 09:41:56;;;;;;;66.28;35.40;;;;;;;;;;5116314;28;20288;-66
2021/03/24 09:44:34;;;;;;;58.55;32.95;;;;;;;;;;5116579;28;20609;-67
2021/03/24 09:47:01;;;;;;;55.92;33.10;;;;;;;;;;5115852;28;20182;-66
2021/03/24 09:49:32;;;;;;;58.50;34.38;;;;;;;;;;5115890;28;20686;-66
2021/03/24 09:52:16;;;;;;;65.95;37.40;;;;;;;;;;5116090;28;20271;-65
2021/03/24 09:54:56;;;;;;;57.63;33.05;;;;;;;;;;5115671;28;20191;-67
2021/03/24 09:57:26;;;;;;;68.40;36.00;;;;;;;;;;5115540;28;20705;-66
2021/03/24 10:00:00;;;;;;;69.75;35.40;;;;;;;;;;5115876;28;20560;-66
2021/03/24 10:02:30;;;;;;;59.20;33.08;;;;;;;;;;5115701;28;20724;-66
2021/03/24 10:05:02;;;;;;;64.30;36.45;;;;;;;;;;5116226;28;20290;-66
2021/03/24 10:07:30;;;;;;;60.00;35.42;;;;;;;;;;5116426;28;20236;-67
2021/03/24 10:10:03;;;;;;;61.83;35.72;;;;;;;;;;5114951;28;20262;-66
2021/03/24 10:12:34;;;;;;;57.75;35.45;;;;;;;;;;5114984;28;20199;-67
2021/03/24 10:15:08;;;;;;;62.85;34.38;;;;;;;;;;5115230;28;20195;-67
2021/03/24 10:17:37;;;;;;;58.38;35.45;;;;;;;;;;5115349;28;20216;-66
2021/03/24 10:20:08;;;;;;;61.55;36.33;;;;;;;;;;5115016;28;20285;-66
2021/03/24 10:22:37;;;;;;;59.78;36.22;;;;;;;;;;5115313;28;20222;-66
2021/03/24 10:25:07;;;;;;;61.17;36.67;;;;;;;;;;5115297;28;20227;-66
2021/03/24 10:27:34;;;;;;;66.70;36.73;;;;;;;;;;5115502;28;20552;-67
2021/03/24 10:30:05;;;;;;;57.97;37.60;;;;;;;;;;5114682;28;20572;-66
2021/03/24 10:32:34;;;;;;;64.50;36.10;;;;;;;;;;5114723;28;20457;-66
2021/03/24 10:35:10;;;;;;;54.13;33.85;;;;;;;;;;5114781;28;20485;-66
2021/03/24 10:37:45;;;;;;;63.60;36.95;;;;;;;;;;5115042;28;20271;-66
2021/03/24 10:40:14;;;;;;;66.60;37.93;;;;;;;;;;5115039;28;20619;-66
2021/03/24 10:42:45;;;;;;;66.47;39.40;;;;;;;;;;5115353;28;20524;-67
2021/03/24 10:45:20;;;;;;;64.40;38.67;;;;;;;;;;5115259;28;20462;-66
2021/03/24 10:47:51;;;;;;;58.53;37.15;;;;;;;;;;5114720;28;20462;-66
2021/03/24 10:50:27;;;;;;;57.47;32.63;;;;;;;;;;5115195;27;20204;-66
2021/03/24 10:53:07;;;;;;;51.60;32.97;;;;;;;;;;5114908;28;20430;-67
2021/03/24 10:55:34;;;;;;;60.08;33.63;;;;;;;;;;5114456;28;20509;-66
2021/03/24 10:58:06;;;;;;;60.90;34.60;;;;;;;;;;5114819;28;20630;-66
2021/03/24 11:00:35;;;;;;;60.47;33.97;;;;;;;;;;5115481;28;20267;-65
2021/03/24 11:03:06;;;;;;;58.07;32.13;;;;;;;;;;5114525;28;20482;-66
2021/03/24 11:05:38;;;;;;;61.60;34.47;;;;;;;;;;5114597;28;20806;-67
2021/03/24 11:08:15;;;;;;;55.23;33.07;;;;;;;;;;5114256;28;20514;-66
2021/03/24 11:10:47;;;;;;;62.37;35.30;;;;;;;;;;5114067;28;20502;-65
2021/03/24 11:13:21;;;;;;;54.90;32.50;;;;;;;;;;5115157;28;20548;-66
2021/03/24 11:16:06;;;;;;;53.37;33.13;;;;;;;;;;5114456;28;20520;-67
2021/03/24 11:18:35;;;;;;;64.50;34.47;;;;;;;;;;5114771;28;20912;-66
2021/03/24 11:21:07;;;;;;;54.33;34.30;;;;;;;;;;5113962;28;20760;-67
2021/03/24 11:23:36;;;;;;;52.00;31.40;;;;;;;;;;5114358;28;20822;-66
2021/03/24 11:26:05;;;;;;;54.10;34.27;;;;;;;;;;5114059;28;20495;-67
2021/03/24 11:28:34;;;;;;;50.70;33.22;;;;;;;;;;5113863;28;20474;-66
2021/03/24 11:31:03;;;;;;;51.80;33.10;;;;;;;;;;5113886;28;20257;-66
2021/03/24 11:33:35;;;;;;;53.10;33.30;;;;;;;;;;5114403;28;20533;-67
2021/03/24 11:36:05;;;;;;;52.63;32.40;;;;;;;;;;5114123;28;20439;-66
2021/03/24 11:38:37;;;;;;;50.20;33.80;;;;;;;;;;5113788;28;20435;-67
2021/03/24 11:41:07;;;;;;;46.47;30.87;;;;;;;;;;5113825;28;20430;-66
2021/03/24 11:43:35;;;;;;;53.10;32.07;;;;;;;;;;5113710;28;20924;-66
2021/03/24 11:46:13;;;;;;;52.47;32.80;;;;;;;;;;5113757;28;20522;-65
2021/03/24 11:48:51;;;;;;;53.23;30.77;;;;;;;;;;5114491;28;20426;-67
2021/03/24 11:51:23;;;;;;;48.50;29.67;;;;;;;;;;5113727;28;20521;-66
2021/03/24 11:53:58;;;;;;;45.13;29.17;;;;;;;;;;5114129;28;20774;-67
2021/03/24 11:56:27;;;;;;;49.20;29.27;;;;;;;;;;5113615;28;20434;-66
2021/03/24 11:58:58;;;;;;;55.33;31.50;;;;;;;;;;5112748;28;20502;-67
2021/03/24 12:01:42;;;;;;;57.77;35.90;;;;;;;;;;5112938;28;20434;-67
2021/03/24 12:04:20;;;;;;;49.87;31.37;;;;;;;;;;5113026;28;20454;-67
2021/03/24 12:06:52;;;;;;;46.03;31.13;;;;;;;;;;5112952;28;20861;-67
2021/03/24 12:09:21;;;;;;;44.70;28.40;;;;;;;;;;5113068;28;20969;-68
2021/03/24 12:11:48;;;;;;;56.93;31.20;;;;;;;;;;5113199;28;20529;-67
2021/03/24 12:14:17;;;;;;;44.27;29.50;;;;;;;;;;5113650;28;20438;-67
2021/03/24 12:16:45;;;;;;;50.40;31.47;;;;;;;;;;5112750;28;20525;-66
2021/03/24 12:19:26;;;;;;;43.03;26.57;;;;;;;;;;5112567;28;20439;-66
2021/03/24 12:21:54;;;;;;;60.30;31.27;;;;;;;;;;5112418;28;20449;-66
2021/03/24 12:24:24;;;;;;;53.87;29.70;;;;;;;;;;5113237;28;20443;-67
2021/03/24 12:26:52;;;;;;;53.33;30.30;;;;;;;;;;5113865;28;20522;-66
2021/03/24 12:29:22;;;;;;;55.00;27.90;;;;;;;;;;5113377;28;20521;-67
2021/03/24 12:31:50;;;;;;;49.10;26.50;;;;;;;;;;5112968;28;20928;-66
2021/03/24 12:34:18;;;;;;;51.80;29.57;;;;;;;;;;5114869;28;20531;-67
2021/03/24 12:36:50;;;;;;;52.17;29.83;;;;;;;;;;5116837;27;20474;-67
2021/03/24 12:39:27;;;;;;;57.40;29.73;;;;;;;;;;5117179;28;20568;-67
2021/03/24 12:41:54;;;;;;;50.50;29.40;;;;;;;;;;5117726;28;20857;-67
2021/03/24 12:44:23;;;;;;;50.50;28.50;;;;;;;;;;5116700;28;20592;-67
2021/03/24 12:46:51;;;;;;;56.70;28.57;;;;;;;;;;5117094;28;20834;-67
2021/03/24 12:49:19;;;;;;;53.97;29.83;;;;;;;;;;5116624;28;20478;-66
2021/03/24 12:51:48;;;;;;;55.63;31.07;;;;;;;;;;5116814;27;20483;-67
2021/03/24 12:54:15;;;;;;;52.53;27.97;;;;;;;;;;5116526;28;20959;-67
2021/03/24 12:56:52;;;;;;;53.60;28.50;;;;;;;;;;5116485;28;20547;-67
2021/03/24 12:59:34;;;;;;;53.03;27.43;;;;;;;;;;5117233;28;20494;-67
2021/03/24 13:02:12;;;;;;;48.70;26.30;;;;;;;;;;5117168;28;20530;-67
2021/03/24 13:05:00;;;;;;;49.30;27.80;;;;;;;;;;5117691;27;20459;-66
2021/03/24 13:07:29;;;;;;;49.50;29.33;;;;;;;;;;5110331;28;20799;-66
2021/03/24 13:10:06;;;;;;;50.53;26.77;;;;;;;;;;5116245;28;20474;-67
2021/03/24 13:12:37;;;;;;;54.20;26.80;;;;;;;;;;5116469;28;20441;-67
2021/03/24 13:15:09;;;;;;;65.70;28.40;;;;;;;;;;5116280;28;20469;-66
2021/03/24 13:17:42;;;;;;;47.77;27.03;;;;;;;;;;5116696;28;20514;-67
2021/03/24 13:20:18;;;;;;;49.23;25.97;;;;;;;;;;5117170;28;20434;-68
2021/03/24 13:22:47;;;;;;;43.33;25.00;;;;;;;;;;5116596;28;20428;-67
2021/03/24 13:25:23;;;;;;;42.03;24.93;;;;;;;;;;5116515;28;20562;-67
2021/03/24 13:28:01;;;;;;;42.63;22.50;;;;;;;;;;5115963;28;20515;-67
2021/03/24 13:30:30;;;;;;;44.00;24.60;;;;;;;;;;5116440;28;20495;-66
2021/03/24 13:33:01;;;;;;;44.73;23.63;;;;;;;;;;5116016;28;20450;-67
2021/03/24 13:35:31;;;;;;;42.37;23.80;;;;;;;;;;5116460;28;20447;-67
2021/03/24 13:37:58;;;;;;;43.97;23.30;;;;;;;;;;5116427;28;20928;-67
2021/03/24 13:40:26;;;;;;;42.40;24.17;;;;;;;;;;5116002;28;20947;-67
2021/03/24 13:42:55;;;;;;;43.30;22.23;;;;;;;;;;5116013;28;20470;-65
2021/03/24 13:45:25;;;;;;;43.97;22.97;;;;;;;;;;5116202;28;20467;-67
2021/03/24 13:47:55;;;;;;;46.27;23.93;;;;;;;;;;5116561;28;20459;-67
2021/03/24 13:50:24;;;;;;;42.80;24.33;;;;;;;;;;5115918;27;20561;-68
2021/03/24 13:52:53;;;;;;;43.80;23.67;;;;;;;;;;5116275;28;20477;-67
2021/03/24 13:55:40;;;;;;;41.70;25.23;;;;;;;;;;5115767;28;20482;-68
2021/03/24 13:58:15;;;;;;;38.40;23.33;;;;;;;;;;5110891;28;20458;-68
2021/03/24 14:00:45;;;;;;;43.70;23.87;;;;;;;;;;5115464;28;20482;-66
2021/03/24 14:03:17;;;;;;;36.23;22.67;;;;;;;;;;5115956;28;20474;-70
2021/03/24 14:05:47;;;;;;;39.43;20.83;;;;;;;;;;5115956;28;20423;-69
2021/03/24 14:08:17;;;;;;;46.70;22.50;;;;;;;;;;5115166;28;20529;-66
2021/03/24 14:10:45;;;;;;;40.00;22.17;;;;;;;;;;5115861;28;20462;-71
2021/03/24 14:13:18;;;;;;;37.50;20.47;;;;;;;;;;5115625;28;20452;-68
2021/03/24 14:15:50;;;;;;;40.13;19.90;;;;;;;;;;5115033;28;20510;-69
2021/03/24 14:18:20;;;;;;;33.07;19.60;;;;;;;;;;5115281;28;20473;-69
2021/03/24 14:20:50;;;;;;;29.33;19.50;;;;;;;;;;5114828;28;20523;-67
2021/03/24 14:23:23;;;;;;;32.03;18.43;;;;;;;;;;5115128;28;20467;-68
2021/03/24 14:25:57;;;;;;;29.07;16.77;;;;;;;;;;5113913;28;20484;-67
2021/03/24 14:28:26;;;;;;;32.37;18.90;;;;;;;;;;5115417;28;20937;-70
2021/03/24 14:30:56;;;;;;;30.63;17.33;;;;;;;;;;5115051;28;20970;-67
2021/03/24 14:33:29;;;;;;;32.93;19.27;;;;;;;;;;5114034;28;20989;-68
2021/03/24 14:35:58;;;;;;;30.50;17.07;;;;;;;;;;5114536;28;20427;-69
2021/03/24 14:38:28;;;;;;;31.93;20.13;;;;;;;;;;5114422;28;20439;-68
2021/03/24 14:41:01;;;;;;;31.23;18.40;;;;;;;;;;5114220;28;20486;-67
2021/03/24 14:43:35;;;;;;;34.60;17.80;;;;;;;;;;5113515;28;20584;-67